createdAt,value
2022-10-16T09:47:44.057Z,965.73
2022-10-16T09:48:44.002Z,965.74
2022-10-16T09:49:43.926Z,965.69
2022-10-16T09:50:43.862Z,965.73
2022-10-16T09:51:43.806Z,965.76
2022-10-16T09:52:43.768Z,965.71
2022-10-16T09:53:43.789Z,965.73
2022-10-16T09:54:43.629Z,965.74
2022-10-16T09:55:43.571Z,965.73
2022-10-16T09:56:43.520Z,965.72
2022-10-16T09:57:43.471Z,965.72
2022-10-16T09:58:43.407Z,965.76
2022-10-16T09:59:43.338Z,965.77
2022-10-16T10:00:43.298Z,965.83
2022-10-16T10:01:43.221Z,965.79
2022-10-16T10:02:43.208Z,965.85
2022-10-16T10:03:43.113Z,965.82
2022-10-16T10:04:43.065Z,965.84
2022-10-16T10:05:42.991Z,965.88
2022-10-16T10:06:42.932Z,965.80
2022-10-16T10:07:42.874Z,965.83
2022-10-16T10:08:42.836Z,965.86
2022-10-16T10:09:42.753Z,965.84
2022-10-16T10:10:42.700Z,965.86
2022-10-16T10:11:42.638Z,965.84
2022-10-16T10:12:42.582Z,965.84
2022-10-16T10:13:42.522Z,965.84
2022-10-16T10:14:42.461Z,965.83
2022-10-16T10:15:42.413Z,965.86
2022-10-16T10:16:42.342Z,965.84
2022-10-16T10:17:42.284Z,965.87
2022-10-16T10:18:42.251Z,965.78
2022-10-16T10:19:42.181Z,965.82
2022-10-16T10:20:42.111Z,965.76
2022-10-16T10:21:42.053Z,965.78
2022-10-16T10:22:42.003Z,965.79
2022-10-16T10:23:41.943Z,965.84
2022-10-16T10:24:41.877Z,965.80
2022-10-16T10:25:41.822Z,965.80
2022-10-16T10:26:44.242Z,965.78
2022-10-16T10:27:41.709Z,965.84
2022-10-16T10:28:41.708Z,965.83
2022-10-16T10:29:41.592Z,965.84
2022-10-16T10:30:41.532Z,965.80
2022-10-16T10:31:41.494Z,965.83
2022-10-16T10:32:41.417Z,965.90
2022-10-16T10:33:41.358Z,965.89
2022-10-16T10:34:41.301Z,965.89
2022-10-16T10:35:41.249Z,965.90
2022-10-16T10:36:41.183Z,965.91
2022-10-16T10:37:41.127Z,965.93
2022-10-16T10:38:41.071Z,965.94
2022-10-16T10:39:41.012Z,965.96
2022-10-16T10:40:40.953Z,965.97
2022-10-16T10:41:40.895Z,966.03
2022-10-16T10:42:40.833Z,965.97
2022-10-16T10:43:40.785Z,965.97
2022-10-16T10:44:40.720Z,965.98
2022-10-16T10:45:40.667Z,966.01
2022-10-16T10:46:43.393Z,966.04
2022-10-16T10:47:40.548Z,966.04
2022-10-16T10:48:40.503Z,966.01
2022-10-16T10:49:40.549Z,966.01
2022-10-16T10:50:40.382Z,966.05
2022-10-16T10:51:40.320Z,965.97
2022-10-16T10:52:40.280Z,966.00
2022-10-16T10:53:40.202Z,965.95
2022-10-16T10:54:40.142Z,966.00
2022-10-16T10:55:40.085Z,965.99
2022-10-16T10:56:40.026Z,965.96
2022-10-16T10:57:39.973Z,965.95
2022-10-16T10:58:39.909Z,965.93
2022-10-16T10:59:39.876Z,965.92
2022-10-16T11:00:39.794Z,965.91
2022-10-16T11:01:39.775Z,965.89
2022-10-16T11:02:39.680Z,965.90
2022-10-16T11:03:39.621Z,965.90
2022-10-16T11:04:39.567Z,965.91
2022-10-16T11:05:39.505Z,965.86
2022-10-16T11:06:39.513Z,965.85
2022-10-16T11:07:39.385Z,965.82
2022-10-16T11:08:39.328Z,965.81
2022-10-16T11:09:39.275Z,965.81
2022-10-16T11:10:39.233Z,965.79
2022-10-16T11:11:39.171Z,965.84
2022-10-16T11:12:39.106Z,965.84
2022-10-16T11:13:39.041Z,965.85
2022-10-16T11:14:38.991Z,965.82
2022-10-16T11:15:38.999Z,965.86
2022-10-16T11:16:38.873Z,965.84
2022-10-16T11:17:38.814Z,965.84
2022-10-16T11:18:38.753Z,965.83
2022-10-16T11:19:38.704Z,965.89
2022-10-16T11:20:38.638Z,965.88
2022-10-16T11:21:38.582Z,965.87
2022-10-16T11:22:38.522Z,965.84
2022-10-16T11:23:38.467Z,965.85
2022-10-16T11:24:38.406Z,965.79
2022-10-16T11:25:38.383Z,965.77
2022-10-16T11:26:38.299Z,965.80
2022-10-16T11:28:59.870Z,965.84
2022-10-16T11:29:59.725Z,965.86
2022-10-16T11:35:06.983Z,965.82
2022-10-16T11:36:06.954Z,965.84
2022-10-16T11:42:48.018Z,965.89
2022-10-16T11:43:48.001Z,965.87
2022-10-16T11:50:16.783Z,965.77
2022-10-16T11:51:16.727Z,965.81
2022-10-16T12:00:49.681Z,965.75
2022-10-16T12:01:49.580Z,965.77
2022-10-16T12:11:21.328Z,965.67
2022-10-16T12:12:21.244Z,965.67
2022-10-16T12:13:21.152Z,965.64
2022-10-16T12:14:21.116Z,965.62
2022-10-16T12:15:29.745Z,965.62
2022-10-16T12:16:20.964Z,965.62
2022-10-16T12:17:20.910Z,965.63
2022-10-16T12:18:20.851Z,965.61
2022-10-16T12:19:20.793Z,965.59
2022-10-16T12:20:20.739Z,965.59
2022-10-16T12:21:20.677Z,965.57
2022-10-16T12:22:20.674Z,965.56
2022-10-16T12:23:20.565Z,965.53
2022-10-16T12:25:41.121Z,965.56
2022-10-16T12:26:40.994Z,965.53
2022-10-16T12:28:45.548Z,965.54
2022-10-16T12:29:45.285Z,965.55
2022-10-16T12:31:57.439Z,965.54
2022-10-16T12:32:49.905Z,965.62
2022-10-16T12:36:26.653Z,965.63
2022-10-16T12:37:26.432Z,965.68
2022-10-16T12:39:30.809Z,965.66
2022-10-16T12:40:30.692Z,965.65
2022-10-16T12:42:35.278Z,965.66
2022-10-16T12:43:35.073Z,965.66
2022-10-16T14:20:06.487Z,965.94
2022-10-16T14:21:03.657Z,966.01
2022-10-16T15:55:59.687Z,966.15
2022-10-16T15:56:59.506Z,966.13
2022-10-16T15:59:03.801Z,966.16
2022-10-16T16:00:06.549Z,966.19
2022-10-16T16:02:08.258Z,966.18
2022-10-16T16:03:08.035Z,966.17
2022-10-16T16:05:02.362Z,966.17
2022-10-16T16:06:11.266Z,966.21
2022-10-16T16:09:38.213Z,966.26
2022-10-16T16:10:38.118Z,966.30
2022-10-16T16:14:15.596Z,966.23
2022-10-16T16:15:15.343Z,966.23
2022-10-16T16:18:52.783Z,966.32
2022-10-16T16:19:52.523Z,966.27
2022-10-16T16:25:01.867Z,966.33
2022-10-16T16:26:01.679Z,966.34
2022-10-16T16:29:38.573Z,966.36
2022-10-16T16:30:38.354Z,966.37
2022-10-16T16:34:14.775Z,966.39
2022-10-16T16:35:14.672Z,966.40
2022-10-16T16:38:52.764Z,966.39
2022-10-16T16:39:52.707Z,966.39
2022-10-16T16:40:55.457Z,966.39
2022-10-16T16:41:52.689Z,966.42
2022-10-16T16:42:52.506Z,966.41
2022-10-16T16:43:52.456Z,966.41
2022-10-16T16:44:52.391Z,966.41
2022-10-16T16:45:52.325Z,966.40
2022-10-16T16:46:52.314Z,966.41
2022-10-16T16:47:52.205Z,966.39
2022-10-16T16:48:52.147Z,966.39
2022-10-16T16:49:52.087Z,966.43
2022-10-16T16:50:52.029Z,966.41
2022-10-16T16:53:12.913Z,966.44
2022-10-16T16:54:12.501Z,966.48
2022-10-16T16:56:16.910Z,966.48
2022-10-16T16:57:16.706Z,966.49
2022-10-16T16:58:16.643Z,966.47
2022-10-16T16:59:16.815Z,966.51
2022-10-16T17:00:16.475Z,966.48
2022-10-16T17:01:19.881Z,966.52
2022-10-16T17:02:16.367Z,966.48
2022-10-16T17:03:16.306Z,966.54
2022-10-16T17:04:16.231Z,966.57
2022-10-16T17:05:16.175Z,966.53
2022-10-16T17:06:17.075Z,966.59
2022-10-16T17:07:17.521Z,966.63
2022-10-16T17:08:15.995Z,966.64
2022-10-16T17:09:15.934Z,966.68
2022-10-16T17:10:15.873Z,966.66
2022-10-16T17:11:15.812Z,966.72
2022-10-16T17:12:15.773Z,966.70
2022-10-16T17:13:15.697Z,966.76
2022-10-16T17:14:15.635Z,966.78
2022-10-16T17:15:15.569Z,966.76
2022-10-16T17:16:15.517Z,966.79
2022-10-16T17:17:15.464Z,966.81
2022-10-16T17:18:15.391Z,966.83
2022-10-16T17:19:15.328Z,966.86
2022-10-16T17:20:15.270Z,966.84
2022-10-16T17:21:15.208Z,966.87
2022-10-16T17:22:15.149Z,966.87
2022-10-16T17:23:15.091Z,966.90
2022-10-16T17:24:15.023Z,966.93
2022-10-16T17:25:14.966Z,966.97
2022-10-16T17:26:14.910Z,966.92
2022-10-16T17:27:14.845Z,966.98
2022-10-16T17:28:14.782Z,966.97
2022-10-16T17:29:14.728Z,966.94
2022-10-16T17:30:14.667Z,966.97
2022-10-16T17:31:14.632Z,967.01
2022-10-16T17:32:14.541Z,966.99
2022-10-16T17:33:14.482Z,967.01
2022-10-16T17:34:14.425Z,967.02
2022-10-16T17:35:14.378Z,967.06
2022-10-16T17:36:14.300Z,967.05
2022-10-16T17:37:17.199Z,967.07
2022-10-16T17:38:14.229Z,967.06
2022-10-16T17:39:14.117Z,967.04
2022-10-16T17:41:14.000Z,967.07
2022-10-16T17:42:13.936Z,967.10
2022-10-16T17:43:13.877Z,967.10
2022-10-16T17:44:13.818Z,967.11
2022-10-16T17:45:13.758Z,967.14
2022-10-16T17:46:13.703Z,967.16
2022-10-16T17:47:13.638Z,967.12
2022-10-16T17:48:13.585Z,967.14
2022-10-16T17:49:13.602Z,967.15
2022-10-16T17:50:15.678Z,967.12
2022-10-16T17:51:13.390Z,967.14
2022-10-16T17:52:13.341Z,967.14
2022-10-16T17:53:13.269Z,967.15
2022-10-16T17:54:13.207Z,967.09
2022-10-16T17:55:13.147Z,967.18
2022-10-16T17:56:13.087Z,967.16
2022-10-16T17:57:13.030Z,967.22
2022-10-16T17:58:12.965Z,967.18
2022-10-16T17:59:12.906Z,967.23
2022-10-16T18:00:12.846Z,967.25
2022-10-16T18:01:12.843Z,967.25
2022-10-16T18:02:12.785Z,967.24
2022-10-16T18:03:12.662Z,967.23
2022-10-16T18:04:12.604Z,967.27
2022-10-16T18:05:12.538Z,967.27
2022-10-16T18:06:12.475Z,967.26
2022-10-16T18:07:12.422Z,967.27
2022-10-16T18:08:12.387Z,967.30
2022-10-16T18:09:12.297Z,967.33
2022-10-16T18:10:12.559Z,967.32
2022-10-16T18:11:12.176Z,967.32
2022-10-16T18:12:12.111Z,967.35
2022-10-16T18:13:12.063Z,967.36
2022-10-16T18:14:11.990Z,967.34
2022-10-16T18:15:11.932Z,967.36
2022-10-16T18:16:11.884Z,967.38
2022-10-16T18:17:11.839Z,967.38
2022-10-16T18:18:11.747Z,967.38
2022-10-16T18:19:11.697Z,967.40
2022-10-16T18:20:11.626Z,967.38
2022-10-16T18:21:11.561Z,967.39
2022-10-16T18:22:11.510Z,967.42
2022-10-16T18:23:11.438Z,967.41
2022-10-16T18:24:11.380Z,967.38
2022-10-16T18:25:11.340Z,967.37
2022-10-16T18:26:11.262Z,967.36
2022-10-16T18:27:11.206Z,967.37
2022-10-16T18:28:11.141Z,967.41
2022-10-16T18:29:11.072Z,967.39
2022-10-16T18:30:11.008Z,967.40
2022-10-16T18:31:10.953Z,967.41
2022-10-16T18:32:10.890Z,967.40
2022-10-16T18:33:10.827Z,967.43
2022-10-16T18:34:10.774Z,967.44
2022-10-16T18:35:10.718Z,967.44
2022-10-16T18:36:10.645Z,967.43
2022-10-16T18:37:10.584Z,967.43
2022-10-16T18:38:10.521Z,967.43
2022-10-16T18:39:10.460Z,967.45
2022-10-16T18:40:10.398Z,967.43
2022-10-16T18:41:10.335Z,967.43
2022-10-16T18:42:10.278Z,967.45
2022-10-16T18:43:10.212Z,967.45
2022-10-16T18:44:10.191Z,967.41
2022-10-16T18:45:10.091Z,967.37
2022-10-16T18:46:10.030Z,967.38
2022-10-16T18:47:09.968Z,967.39
2022-10-16T18:48:09.910Z,967.40
2022-10-16T18:49:09.850Z,967.39
2022-10-16T18:50:11.760Z,967.38
2022-10-16T18:51:09.736Z,967.42
2022-10-16T18:52:09.664Z,967.42
2022-10-16T18:53:09.600Z,967.41
2022-10-16T18:54:09.538Z,967.39
2022-10-16T18:55:09.478Z,967.42
2022-10-16T18:56:09.417Z,967.44
2022-10-16T18:57:09.350Z,967.43
2022-10-16T18:58:09.290Z,967.44
2022-10-16T18:59:09.229Z,967.43
2022-10-16T19:00:09.172Z,967.42
2022-10-16T19:01:09.173Z,967.40
2022-10-16T19:02:09.046Z,967.42
2022-10-16T19:03:08.983Z,967.41
2022-10-16T19:04:08.921Z,967.41
2022-10-16T19:05:09.775Z,967.38
2022-10-16T19:06:08.801Z,967.39
2022-10-16T19:07:08.733Z,967.42
2022-10-16T19:08:08.692Z,967.44
2022-10-16T19:09:08.615Z,967.42
2022-10-16T19:10:08.554Z,967.40
2022-10-16T19:11:08.491Z,967.42
2022-10-16T19:12:08.434Z,967.43
2022-10-16T19:13:10.916Z,967.42
2022-10-16T19:14:08.313Z,967.41
2022-10-16T19:15:08.241Z,967.45
2022-10-16T19:16:21.887Z,967.45
2022-10-16T19:17:08.116Z,967.46
2022-10-16T19:18:08.061Z,967.46
2022-10-16T19:19:07.996Z,967.47
2022-10-16T19:20:07.942Z,967.48
2022-10-16T19:21:07.878Z,967.49
2022-10-16T19:22:07.810Z,967.50
2022-10-16T19:23:07.746Z,967.49
2022-10-16T19:24:07.690Z,967.52
2022-10-16T19:25:07.623Z,967.53
2022-10-16T19:26:07.561Z,967.55
2022-10-16T19:27:07.502Z,967.54
2022-10-16T19:28:07.458Z,967.52
2022-10-16T19:29:07.375Z,967.53
2022-10-16T19:30:07.343Z,967.53
2022-10-16T19:31:07.253Z,967.56
2022-10-16T19:32:07.582Z,967.55
2022-10-16T19:33:07.132Z,967.56
2022-10-16T19:34:07.073Z,967.58
2022-10-16T19:35:07.005Z,967.57
2022-10-16T19:36:06.952Z,967.62
2022-10-16T19:37:06.883Z,967.62
2022-10-16T19:38:06.821Z,967.66
2022-10-16T19:39:06.820Z,967.66
2022-10-16T19:40:06.699Z,967.67
2022-10-16T19:41:06.631Z,967.64
2022-10-16T19:42:06.570Z,967.67
2022-10-16T19:43:06.509Z,967.70
2022-10-16T19:44:06.454Z,967.71
2022-10-16T19:45:06.383Z,967.68
2022-10-16T19:46:06.322Z,967.68
2022-10-16T19:47:06.265Z,967.66
2022-10-16T19:48:06.202Z,967.65
2022-10-16T19:49:06.137Z,967.65
2022-10-16T19:50:06.077Z,967.67
2022-10-16T19:51:06.033Z,967.68
2022-10-16T19:52:05.953Z,967.68
2022-10-16T19:53:05.890Z,967.73
2022-10-16T19:54:05.830Z,967.72
2022-10-16T19:55:05.770Z,967.72
2022-10-16T19:56:05.701Z,967.74
2022-10-16T19:57:05.640Z,967.73
2022-10-16T19:58:05.577Z,967.79
2022-10-16T19:59:05.521Z,967.78
2022-10-16T20:00:05.457Z,967.85
2022-10-16T20:01:05.427Z,967.84
2022-10-16T20:02:05.341Z,967.83
2022-10-16T20:03:05.268Z,967.83
2022-10-16T20:04:05.205Z,967.84
2022-10-16T20:05:05.144Z,967.88
2022-10-16T20:06:05.097Z,967.89
2022-10-16T20:07:05.028Z,967.89
2022-10-16T20:08:04.963Z,967.87
2022-10-16T20:09:04.895Z,967.89
2022-10-16T20:10:04.837Z,967.89
2022-10-16T20:11:04.772Z,967.90
2022-10-16T20:12:04.709Z,967.89
2022-10-16T20:13:04.643Z,967.90
2022-10-16T20:14:04.582Z,967.87
2022-10-16T20:15:04.536Z,967.92
2022-10-16T20:16:04.508Z,967.91
2022-10-16T20:17:04.398Z,967.92
2022-10-16T20:18:04.336Z,967.96
2022-10-16T20:19:04.276Z,967.92
2022-10-16T20:20:04.214Z,967.94
2022-10-16T20:21:04.147Z,967.94
2022-10-16T20:22:04.088Z,967.98
2022-10-16T20:23:04.026Z,968.00
2022-10-16T20:24:03.963Z,968.01
2022-10-16T20:25:07.163Z,968.00
2022-10-16T20:26:04.377Z,968.00
2022-10-16T20:27:03.770Z,968.02
2022-10-16T20:28:03.713Z,968.05
2022-10-16T20:29:03.717Z,968.03
2022-10-16T20:30:03.592Z,968.03
2022-10-16T20:31:03.527Z,968.01
2022-10-16T20:32:03.464Z,968.06
2022-10-16T20:33:03.399Z,968.06
2022-10-16T20:34:03.344Z,968.08
2022-10-16T20:35:07.085Z,968.04
2022-10-16T20:36:03.214Z,968.08
2022-10-16T20:37:03.151Z,968.08
2022-10-16T20:38:03.096Z,968.11
2022-10-16T20:39:03.027Z,968.09
2022-10-16T20:40:02.969Z,968.09
2022-10-16T20:41:02.933Z,968.11
2022-10-16T20:42:02.851Z,968.12
2022-10-16T20:43:02.777Z,968.14
2022-10-16T20:44:02.713Z,968.12
2022-10-16T20:45:02.650Z,968.18
2022-10-16T20:46:02.587Z,968.17
2022-10-16T20:47:02.527Z,968.17
2022-10-16T20:48:02.475Z,968.18
2022-10-16T20:49:11.393Z,968.22
2022-10-16T20:50:02.346Z,968.20
2022-10-16T20:51:02.280Z,968.23
2022-10-16T20:52:02.218Z,968.25
2022-10-16T20:53:02.155Z,968.23
2022-10-16T20:54:02.089Z,968.22
2022-10-16T20:55:02.026Z,968.23
2022-10-16T20:56:01.970Z,968.26
2022-10-16T20:57:01.903Z,968.26
2022-10-16T20:58:01.839Z,968.28
2022-10-16T20:59:01.776Z,968.31
2022-10-16T21:00:01.721Z,968.30
2022-10-16T21:01:01.694Z,968.32
2022-10-16T21:02:01.726Z,968.31
2022-10-16T21:03:01.535Z,968.33
2022-10-16T21:04:01.466Z,968.32
2022-10-16T21:05:01.433Z,968.30
2022-10-16T21:06:01.341Z,968.34
2022-10-16T21:07:01.278Z,968.31
2022-10-16T21:08:01.226Z,968.35
2022-10-16T21:09:01.161Z,968.35
2022-10-16T21:10:01.090Z,968.35
2022-10-16T21:11:01.028Z,968.36
2022-10-16T21:12:00.967Z,968.38
2022-10-16T21:13:00.901Z,968.36
2022-10-16T21:14:00.843Z,968.39
2022-10-16T21:15:16.786Z,968.44
2022-10-16T21:16:00.715Z,968.41
2022-10-16T21:17:00.658Z,968.39
2022-10-16T21:18:00.589Z,968.42
2022-10-16T21:19:00.530Z,968.40
2022-10-16T21:20:00.470Z,968.42
2022-10-16T21:21:00.404Z,968.43
2022-10-16T21:22:00.344Z,968.44
2022-10-16T21:23:00.277Z,968.39
2022-10-16T21:24:00.220Z,968.47
2022-10-16T21:25:00.157Z,968.43
2022-10-16T21:26:00.097Z,968.47
2022-10-16T21:27:00.041Z,968.45
2022-10-16T21:27:59.972Z,968.47
2022-10-16T21:28:59.972Z,968.49
2022-10-16T21:29:59.845Z,968.45
2022-10-16T21:30:59.778Z,968.48
2022-10-16T21:31:59.721Z,968.53
2022-10-16T21:32:59.658Z,968.48
2022-10-16T21:33:59.593Z,968.49
2022-10-16T21:34:59.537Z,968.50
2022-10-16T21:35:59.472Z,968.52
2022-10-16T21:36:59.405Z,968.48
2022-10-16T21:37:59.344Z,968.45
2022-10-16T21:38:59.289Z,968.48
2022-10-16T21:39:59.220Z,968.49
2022-10-16T21:40:59.154Z,968.53
2022-10-16T21:41:59.093Z,968.55
2022-10-16T21:42:59.027Z,968.53
2022-10-16T21:43:58.976Z,968.52
2022-10-16T21:44:58.907Z,968.51
2022-10-16T21:45:58.840Z,968.54
2022-10-16T21:46:58.788Z,968.52
2022-10-16T21:47:58.743Z,968.54
2022-10-16T21:48:58.659Z,968.52
2022-10-16T21:49:58.624Z,968.56
2022-10-16T21:50:58.536Z,968.51
2022-10-16T21:51:58.463Z,968.57
2022-10-16T21:52:58.407Z,968.54
2022-10-16T21:53:58.344Z,968.54
2022-10-16T21:54:58.283Z,968.56
2022-10-16T21:55:58.229Z,968.57
2022-10-16T21:56:58.209Z,968.55
2022-10-16T21:57:58.094Z,968.58
2022-10-16T21:58:58.036Z,968.54
2022-10-16T21:59:57.969Z,968.55
2022-10-16T22:00:57.949Z,968.58
2022-10-16T22:01:57.844Z,968.55
2022-10-16T22:02:57.786Z,968.54
2022-10-16T22:03:57.725Z,968.56
2022-10-16T22:04:57.655Z,968.54
2022-10-16T22:05:57.590Z,968.60
2022-10-16T22:06:57.536Z,968.59
2022-10-16T22:07:57.463Z,968.57
2022-10-16T22:08:57.415Z,968.61
2022-10-16T22:09:57.340Z,968.57
2022-10-16T22:10:57.280Z,968.55
2022-10-16T22:11:57.215Z,968.57
2022-10-16T22:12:57.154Z,968.55
2022-10-16T22:13:57.093Z,968.57
2022-10-16T22:14:57.030Z,968.58
2022-10-16T22:15:56.965Z,968.57
2022-10-16T22:16:56.902Z,968.56
2022-10-16T22:17:56.836Z,968.58
2022-10-16T22:18:56.774Z,968.58
2022-10-16T22:19:56.715Z,968.59
2022-10-16T22:20:56.655Z,968.58
2022-10-16T22:21:56.614Z,968.60
2022-10-16T22:22:56.529Z,968.61
2022-10-16T22:23:56.463Z,968.62
2022-10-16T22:24:56.400Z,968.63
2022-10-16T22:25:56.337Z,968.62
2022-10-16T22:26:56.277Z,968.62
2022-10-16T22:27:56.212Z,968.66
2022-10-16T22:28:56.191Z,968.72
2022-10-16T22:29:56.083Z,968.69
2022-10-16T22:30:56.021Z,968.67
2022-10-16T22:31:56.003Z,968.66
2022-10-16T22:32:55.905Z,968.73
2022-10-16T22:33:55.840Z,968.72
2022-10-16T22:34:55.785Z,968.71
2022-10-16T22:35:55.708Z,968.70
2022-10-16T22:36:55.653Z,968.71
2022-10-16T22:37:55.584Z,968.69
2022-10-16T22:38:55.524Z,968.69
2022-10-16T22:39:57.776Z,968.72
2022-10-16T22:40:55.394Z,968.68
2022-10-16T22:41:55.327Z,968.69
2022-10-16T22:42:55.268Z,968.70
2022-10-16T22:43:55.208Z,968.67
2022-10-16T22:44:55.143Z,968.67
2022-10-16T22:45:55.079Z,968.65
2022-10-16T22:46:55.019Z,968.67
2022-10-16T22:47:54.957Z,968.66
2022-10-16T22:48:55.967Z,968.67
2022-10-16T22:49:54.829Z,968.69
2022-10-16T22:50:54.770Z,968.67
2022-10-16T22:51:54.703Z,968.70
2022-10-16T22:52:54.638Z,968.67
2022-10-16T22:53:54.585Z,968.71
2022-10-16T22:54:54.519Z,968.72
2022-10-16T22:57:15.525Z,968.66
2022-10-16T22:58:15.374Z,968.70
2022-10-16T23:01:51.252Z,968.71
2022-10-16T23:02:51.184Z,968.67
2022-10-16T23:07:58.826Z,968.67
2022-10-16T23:08:58.735Z,968.68
2022-10-16T23:20:05.239Z,968.68
2022-10-16T23:21:05.111Z,968.69
2022-10-16T23:30:38.023Z,968.70
2022-10-16T23:31:37.963Z,968.71
2022-10-16T23:41:13.451Z,968.74
2022-10-16T23:42:14.280Z,968.74
2022-10-16T23:43:13.300Z,968.76
2022-10-16T23:44:13.235Z,968.73
2022-10-16T23:45:13.207Z,968.74
2022-10-16T23:46:13.268Z,968.78
2022-10-16T23:47:13.061Z,968.75
2022-10-16T23:48:12.976Z,968.74
2022-10-16T23:49:12.937Z,968.74
2022-10-16T23:50:12.859Z,968.73
2022-10-16T23:51:12.801Z,968.71
2022-10-16T23:52:12.727Z,968.77
2022-10-16T23:56:17.569Z,968.74
2022-10-16T23:57:17.277Z,968.73
